Blewett, Washington
Current Conditions -  °F | °C
As of 10:26 PM on Tuesday 25 Nov 2014 (Local Time) from KEAT Reporting Station
Moderate Fog Moderate Fog  
Wind Chill: 37°   Ceiling: 500
Heat Index: 37°   Visibility: 0.5mi
Dew Point: 35°   Wind: 0mph
Humidity: 93%   Direction: NA
Pressure: 30.2"   Gusts: NA
Location:  47.7866°N, 120.856°W
Report Text: KEAT 260626Z AUTO 00000KT 1/2SM FG VV005 03/02 A3020 RMK AO2 RAE0559 P0000 T00280017
Loading
Personal Weather Stations






























Interactive Weather Map New forecast layout! Learn more

10-Day Weather Forecast

Advertisements
Track Severe Weather on mobile